Macdill AFB, Florida
Current Conditions -  °F | °C
As of 9:58 AM on Monday 22 Dec 2014 (Local Time) from KMCF Reporting Station
Scattered Clouds Scattered Clouds  
Wind Chill: 70°   Ceiling: Unl
Heat Index: 70°   Visibility: 10mi
Dew Point: 69°   Wind: 9mph
Humidity: 98%   Direction: 150°SSE
Pressure: 30.01"   Gusts: NA
Location:  27.8467°N, 82.5182°W
Report Text: KMCF 221458Z AUTO 15008KT 10SM SCT049 21/21 A3001 RMK AO2 SLP165 T02100207 52005
Loading
Personal Weather Stations






























Interactive Weather Map New forecast layout! Learn more

10-Day Weather Forecast

Advertisements
Track Severe Weather on mobile